PWSweather.com
Personal Weather Stations
Station Observations
STPETERS
BroadstairsGB

BroadstairsGB

Lat: 51.37, Lon: 1.423

Elevation: 141

Station Type: WH1081

Latest ConditionsUpdated 12:15:02 PM GMT Thursday, Jun 29, 2017
Currently Today's Max Today's Min Today's Average
Temperature 68.0°F20.0°C 70.2°F21.2°C 56.5°F13.6°C 60.5°F15.8°C
Dew Point 53.6°F12.0°C 54.6°F12.6°C 44.2°F6.8°C 48.0°F8.9°C
Winds 5.0 mph SW8.0 kmh SW 9.7 mph S15.6 kmh S - 5.1 mph 8.2 kmh
Wind Gusts 8.3 mph13.4 kmh 13.6 mph21.9 kmh - -
Humidity 60% 69% 54% 63%
Pressure 29.40 in995.6 mb 29.40 in995.6 mb 29.36 in994.2 mb -
Hour Temp Dew Point Humidity Winds Wind Gusts Pressure Precip Precip Rate Daily Precip Total
12:15 PM 68.0°F20.0°C 53.6°F12.0°C 60% 5.0 mph SW8.0 kmh SW 8.3 mph13.4 kmh 29.40 in995.6 mb 0.00 in0.0 mm 0.00 in0.0 mm 0.00 in0.0 mm
12:00 PM 68.5°F20.3°C 53.2°F11.8°C 58% 7.7 mph S12.4 kmh S 12.1 mph19.5 kmh 29.40 in995.6 mb 0.00 in0.0 mm 0.00 in0.0 mm 0.00 in0.0 mm
11:45 AM 70.0°F21.1°C 52.6°F11.4°C 54% 9.7 mph S15.6 kmh S 13.6 mph21.9 kmh 29.40 in995.6 mb 0.00 in0.0 mm 0.00 in0.0 mm 0.00 in0.0 mm
11:30 AM 70.2°F21.2°C 54.2°F12.3°C 57% 7.7 mph SSW12.4 kmh SSW 13.0 mph20.9 kmh 29.40 in995.6 mb 0.00 in0.0 mm 0.00 in0.0 mm 0.00 in0.0 mm
11:15 AM 69.1°F20.6°C 54.6°F12.6°C 60% 7.7 mph S12.4 kmh S 13.0 mph20.9 kmh 29.40 in995.6 mb 0.00 in0.0 mm 0.00 in0.0 mm 0.00 in0.0 mm
11:00 AM 67.3°F19.6°C 54.3°F12.4°C 63% 6.6 mph SSW10.6 kmh SSW 9.8 mph15.8 kmh 29.40 in995.6 mb 0.00 in0.0 mm 0.00 in0.0 mm 0.00 in0.0 mm
10:45 AM 66.0°F18.9°C 53.9°F12.2°C 65% 5.9 mph SSW9.5 kmh SSW 8.3 mph13.4 kmh 29.39 in995.3 mb 0.00 in0.0 mm 0.00 in0.0 mm 0.00 in0.0 mm
10:30 AM 65.3°F18.5°C 53.7°F12.1°C 66% 7.7 mph S12.4 kmh S 9.8 mph15.8 kmh 29.39 in995.3 mb 0.00 in0.0 mm 0.00 in0.0 mm 0.00 in0.0 mm
10:15 AM 64.0°F17.8°C 53.7°F12.1°C 69% 9.0 mph S14.5 kmh S 11.4 mph18.3 kmh 29.39 in995.3 mb 0.00 in0.0 mm 0.00 in0.0 mm 0.00 in0.0 mm
10:00 AM 63.7°F17.6°C 52.1°F11.2°C 66% 7.2 mph S11.6 kmh S 9.8 mph15.8 kmh 29.39 in995.3 mb 0.00 in0.0 mm 0.00 in0.0 mm 0.00 in0.0 mm
09:45 AM 64.4°F18.0°C 52.0°F11.1°C 64% 6.4 mph S10.3 kmh S 10.7 mph17.2 kmh 29.39 in995.3 mb 0.00 in0.0 mm 0.00 in0.0 mm 0.00 in0.0 mm
09:30 AM 64.2°F17.9°C 51.8°F11.0°C 64% 7.0 mph S11.3 kmh S 9.2 mph14.8 kmh 29.39 in995.3 mb 0.00 in0.0 mm 0.00 in0.0 mm 0.00 in0.0 mm
09:15 AM 63.9°F17.7°C 51.0°F10.6°C 63% 5.7 mph S9.2 kmh S 8.3 mph13.4 kmh 29.39 in995.3 mb 0.00 in0.0 mm 0.00 in0.0 mm 0.00 in0.0 mm
09:00 AM 63.7°F17.6°C 50.9°F10.5°C 63% 5.1 mph SSW8.2 kmh SSW 7.6 mph12.2 kmh 29.39 in995.3 mb 0.00 in0.0 mm 0.00 in0.0 mm 0.00 in0.0 mm
08:45 AM 62.6°F17.0°C 49.8°F9.9°C 63% 4.1 mph S6.6 kmh S 6.0 mph9.7 kmh 29.38 in994.9 mb 0.00 in0.0 mm 0.00 in0.0 mm 0.00 in0.0 mm
08:30 AM 61.9°F16.6°C 48.7°F9.3°C 62% 3.6 mph SW5.8 kmh SW 4.5 mph7.2 kmh 29.38 in994.9 mb 0.00 in0.0 mm 0.00 in0.0 mm 0.00 in0.0 mm
08:15 AM 62.4°F16.9°C 48.8°F9.3°C 61% 3.5 mph SW5.6 kmh SW 4.5 mph7.2 kmh 29.38 in994.9 mb 0.00 in0.0 mm 0.00 in0.0 mm 0.00 in0.0 mm
08:00 AM 62.6°F17.0°C 49.4°F9.7°C 62% 3.4 mph WSW5.5 kmh WSW 5.4 mph8.7 kmh 29.38 in994.9 mb 0.00 in0.0 mm 0.00 in0.0 mm 0.00 in0.0 mm
07:45 AM 61.5°F16.4°C 48.8°F9.3°C 63% 2.7 mph WSW4.3 kmh WSW 3.8 mph6.1 kmh 29.38 in994.9 mb 0.00 in0.0 mm 0.00 in0.0 mm 0.00 in0.0 mm
07:30 AM 60.8°F16.0°C 47.7°F8.7°C 62% 3.1 mph WSW5.0 kmh WSW 4.5 mph7.2 kmh 29.38 in994.9 mb 0.00 in0.0 mm 0.00 in0.0 mm 0.00 in0.0 mm
07:15 AM 60.8°F16.0°C 48.1°F8.9°C 63% 3.3 mph WSW5.3 kmh WSW 5.4 mph8.7 kmh 29.38 in994.9 mb 0.00 in0.0 mm 0.00 in0.0 mm 0.00 in0.0 mm
07:00 AM 60.1°F15.6°C 47.5°F8.6°C 63% 3.6 mph W5.8 kmh W 5.4 mph8.7 kmh 29.37 in994.6 mb 0.00 in0.0 mm 0.00 in0.0 mm 0.00 in0.0 mm
06:45 AM 59.5°F15.3°C 46.9°F8.3°C 63% 3.1 mph SW5.0 kmh SW 4.5 mph7.2 kmh 29.37 in994.6 mb 0.00 in0.0 mm 0.00 in0.0 mm 0.00 in0.0 mm
06:30 AM 58.6°F14.8°C 46.1°F7.8°C 63% 3.4 mph WSW5.5 kmh WSW 4.5 mph7.2 kmh 29.37 in994.6 mb 0.00 in0.0 mm 0.00 in0.0 mm 0.00 in0.0 mm
06:15 AM 58.3°F14.6°C 45.8°F7.7°C 63% 3.8 mph SW6.1 kmh SW 4.5 mph7.2 kmh 29.37 in994.6 mb 0.00 in0.0 mm 0.00 in0.0 mm 0.00 in0.0 mm
06:00 AM 57.9°F14.4°C 45.0°F7.2°C 62% 3.5 mph SW5.6 kmh SW 5.4 mph8.7 kmh 29.37 in994.6 mb 0.00 in0.0 mm 0.00 in0.0 mm 0.00 in0.0 mm
05:45 AM 57.7°F14.3°C 44.8°F7.1°C 62% 3.4 mph WSW5.5 kmh WSW 4.5 mph7.2 kmh 29.37 in994.6 mb 0.00 in0.0 mm 0.00 in0.0 mm 0.00 in0.0 mm
05:30 AM 57.6°F14.2°C 44.7°F7.1°C 62% 3.2 mph SW5.1 kmh SW 5.4 mph8.7 kmh 29.37 in994.6 mb 0.00 in0.0 mm 0.00 in0.0 mm 0.00 in0.0 mm
05:15 AM 57.4°F14.1°C 44.5°F6.9°C 62% 3.7 mph SW6.0 kmh SW 5.4 mph8.7 kmh 29.37 in994.6 mb 0.00 in0.0 mm 0.00 in0.0 mm 0.00 in0.0 mm
05:00 AM 57.0°F13.9°C 44.6°F7.0°C 63% 3.0 mph SW4.8 kmh SW 4.5 mph7.2 kmh 29.37 in994.6 mb 0.00 in0.0 mm 0.00 in0.0 mm 0.00 in0.0 mm
04:45 AM 56.7°F13.7°C 44.2°F6.8°C 63% 3.2 mph WSW5.1 kmh WSW 3.8 mph6.1 kmh 29.37 in994.6 mb 0.00 in0.0 mm 0.00 in0.0 mm 0.00 in0.0 mm
04:30 AM 56.7°F13.7°C 44.2°F6.8°C 63% 3.3 mph WSW5.3 kmh WSW 4.5 mph7.2 kmh 29.37 in994.6 mb 0.00 in0.0 mm 0.00 in0.0 mm 0.00 in0.0 mm
04:15 AM 56.7°F13.7°C 44.2°F6.8°C 63% 4.4 mph W7.1 kmh W 6.9 mph11.1 kmh 29.37 in994.6 mb 0.00 in0.0 mm 0.00 in0.0 mm 0.00 in0.0 mm
04:00 AM 56.7°F13.7°C 44.6°F7.0°C 64% 4.2 mph WSW6.8 kmh WSW 6.0 mph9.7 kmh 29.37 in994.6 mb 0.00 in0.0 mm 0.00 in0.0 mm 0.00 in0.0 mm
03:45 AM 56.7°F13.7°C 44.6°F7.0°C 64% 5.6 mph W9.0 kmh W 9.8 mph15.8 kmh 29.36 in994.2 mb 0.00 in0.0 mm 0.00 in0.0 mm 0.00 in0.0 mm
03:30 AM 56.7°F13.7°C 44.6°F7.0°C 64% 4.6 mph WSW7.4 kmh WSW 6.0 mph9.7 kmh 29.36 in994.2 mb 0.00 in0.0 mm 0.00 in0.0 mm 0.00 in0.0 mm
03:15 AM 56.5°F13.6°C 44.5°F6.9°C 64% 5.1 mph W8.2 kmh W 6.9 mph11.1 kmh 29.36 in994.2 mb 0.00 in0.0 mm 0.00 in0.0 mm 0.00 in0.0 mm
03:00 AM 56.5°F13.6°C 44.5°F6.9°C 64% 5.2 mph WSW8.4 kmh WSW 6.9 mph11.1 kmh 29.36 in994.2 mb 0.00 in0.0 mm 0.00 in0.0 mm 0.00 in0.0 mm
02:45 AM 56.5°F13.6°C 44.5°F6.9°C 64% 5.8 mph W9.3 kmh W 8.3 mph13.4 kmh 29.36 in994.2 mb 0.00 in0.0 mm 0.00 in0.0 mm 0.00 in0.0 mm
02:30 AM 56.7°F13.7°C 44.6°F7.0°C 64% 6.1 mph WSW9.8 kmh WSW 10.7 mph17.2 kmh 29.36 in994.2 mb 0.00 in0.0 mm 0.00 in0.0 mm 0.00 in0.0 mm
02:15 AM 56.7°F13.7°C 45.0°F7.2°C 65% 6.9 mph W11.1 kmh W 9.8 mph15.8 kmh 29.37 in994.6 mb 0.00 in0.0 mm 0.00 in0.0 mm 0.00 in0.0 mm
02:00 AM 56.8°F13.8°C 45.2°F7.3°C 65% 6.3 mph WSW10.1 kmh WSW 9.8 mph15.8 kmh 29.37 in994.6 mb 0.00 in0.0 mm 0.00 in0.0 mm 0.00 in0.0 mm
01:45 AM 56.7°F13.7°C 45.4°F7.4°C 66% 6.9 mph WSW11.1 kmh WSW 9.8 mph15.8 kmh 29.37 in994.6 mb 0.00 in0.0 mm 0.00 in0.0 mm 0.00 in0.0 mm
01:30 AM 56.8°F13.8°C 45.6°F7.6°C 66% 5.7 mph W9.2 kmh W 8.3 mph13.4 kmh 29.36 in994.2 mb 0.00 in0.0 mm 0.00 in0.0 mm 0.00 in0.0 mm
01:15 AM 57.0°F13.9°C 45.8°F7.7°C 66% 5.9 mph WSW9.5 kmh WSW 8.3 mph13.4 kmh 29.36 in994.2 mb 0.00 in0.0 mm 0.00 in0.0 mm 0.00 in0.0 mm
01:00 AM 57.4°F14.1°C 46.1°F7.8°C 66% 5.8 mph W9.3 kmh W 8.3 mph13.4 kmh 29.37 in994.6 mb 0.00 in0.0 mm 0.00 in0.0 mm 0.00 in0.0 mm
12:45 AM 57.6°F14.2°C 46.3°F7.9°C 66% 4.3 mph WSW6.9 kmh WSW 6.0 mph9.7 kmh 29.37 in994.6 mb 0.00 in0.0 mm 0.00 in0.0 mm 0.00 in0.0 mm
12:30 AM 57.9°F14.4°C 47.0°F8.3°C 67% 5.9 mph W9.5 kmh W 8.3 mph13.4 kmh 29.38 in994.9 mb 0.00 in0.0 mm 0.00 in0.0 mm 0.00 in0.0 mm
12:15 AM 57.7°F14.3°C 46.9°F8.3°C 67% 4.5 mph W7.2 kmh W 6.9 mph11.1 kmh 29.38 in994.9 mb 0.00 in0.0 mm 0.00 in0.0 mm 0.00 in0.0 mm
12:00 AM 57.7°F14.3°C 47.3°F8.5°C 68% 4.3 mph WNW6.9 kmh WNW 6.9 mph11.1 kmh 29.38 in994.9 mb 0.00 in0.0 mm 0.00 in0.0 mm 0.00 in0.0 mm